createdAt,value
2023-06-30T00:04:53.035Z,4.60
2023-06-30T00:15:17.190Z,3.20
2023-06-30T00:25:41.286Z,4.10
2023-06-30T00:36:05.902Z,3.80
2023-06-30T00:46:30.162Z,3.80
2023-06-30T00:56:54.227Z,3.60
2023-06-30T01:07:23.960Z,3.30
2023-06-30T01:17:52.649Z,3.50
2023-06-30T01:28:19.042Z,4.20
2023-06-30T01:38:44.225Z,3.80
2023-06-30T01:49:11.494Z,3.80
2023-06-30T01:59:35.692Z,4.70
2023-06-30T02:09:59.863Z,3.90
2023-06-30T02:20:25.250Z,4.00
2023-06-30T02:30:49.301Z,5.50
2023-06-30T02:41:13.373Z,5.40
2023-06-30T02:51:37.638Z,5.00
2023-06-30T03:02:03.024Z,5.60
2023-06-30T03:12:27.781Z,4.60
2023-06-30T03:22:54.003Z,4.80
2023-06-30T03:33:18.178Z,4.50
2023-06-30T03:43:42.178Z,5.30
2023-06-30T03:54:07.564Z,5.30
2023-06-30T04:04:33.197Z,5.80
2023-06-30T04:14:58.194Z,5.10
2023-06-30T04:25:22.403Z,3.90
2023-06-30T04:35:46.976Z,4.30
2023-06-30T04:46:11.430Z,3.20
2023-06-30T04:56:35.695Z,4.00
2023-06-30T05:06:59.813Z,3.10
2023-06-30T05:17:24.057Z,4.00
2023-06-30T05:27:48.281Z,2.80
2023-06-30T05:38:12.357Z,3.00
2023-06-30T05:48:36.384Z,2.50
2023-06-30T05:59:00.403Z,2.80
2023-06-30T06:09:24.445Z,2.80
2023-06-30T06:19:48.597Z,1.70
2023-06-30T06:30:14.303Z,2.30
2023-06-30T06:40:37.823Z,2.20
2023-06-30T06:51:03.906Z,2.00
2023-06-30T07:01:28.034Z,2.50
2023-06-30T07:11:52.281Z,2.00
2023-06-30T07:22:16.388Z,3.50
2023-06-30T07:32:40.484Z,2.00
2023-06-30T07:43:04.668Z,2.30
2023-06-30T07:53:28.824Z,2.20
2023-06-30T08:03:53.302Z,2.40
2023-06-30T08:14:16.993Z,1.60
2023-06-30T08:24:42.227Z,1.90
2023-06-30T08:35:07.110Z,3.20
2023-06-30T08:45:31.007Z,1.20
2023-06-30T08:55:55.472Z,1.90
2023-06-30T09:06:20.225Z,2.30
2023-06-30T09:16:44.264Z,1.10
2023-06-30T09:27:08.736Z,1.40
2023-06-30T09:37:41.142Z,1.00
2023-06-30T09:48:10.944Z,1.50
2023-06-30T09:58:36.517Z,1.60
2023-06-30T10:09:02.543Z,1.70
2023-06-30T10:19:28.320Z,2.50
2023-06-30T10:29:53.489Z,1.60
2023-06-30T10:40:28.223Z,1.30
2023-06-30T10:50:54.823Z,1.70
2023-06-30T11:01:19.078Z,2.00
2023-06-30T11:11:50.264Z,1.10
2023-06-30T11:22:24.333Z,1.50
2023-06-30T11:32:48.990Z,1.70
2023-06-30T11:43:12.647Z,1.60
2023-06-30T11:53:37.037Z,1.80
2023-06-30T12:04:34.843Z,1.50
2023-06-30T12:14:58.363Z,1.30
2023-06-30T12:25:27.431Z,1.40
2023-06-30T12:35:51.737Z,2.40
2023-06-30T12:46:15.298Z,1.60
2023-06-30T12:56:39.343Z,1.70
2023-06-30T13:07:03.473Z,1.30
2023-06-30T13:17:27.686Z,1.40
2023-06-30T13:27:52.015Z,1.70
2023-06-30T13:38:16.173Z,2.30
2023-06-30T13:48:40.942Z,1.30
2023-06-30T13:59:05.009Z,2.30
2023-06-30T14:09:29.353Z,1.60
2023-06-30T14:19:53.429Z,2.30
2023-06-30T14:30:17.874Z,2.00
2023-06-30T14:40:42.024Z,2.50
2023-06-30T14:51:06.129Z,2.80
2023-06-30T15:01:30.915Z,3.10
2023-06-30T15:11:54.632Z,3.40
2023-06-30T15:22:19.764Z,2.50
2023-06-30T15:32:43.425Z,3.10
2023-06-30T15:43:08.595Z,1.80
2023-06-30T15:53:32.759Z,2.80
2023-06-30T16:03:57.526Z,2.90
2023-06-30T16:14:21.754Z,5.60
2023-06-30T16:24:46.182Z,3.30
2023-06-30T16:35:10.681Z,3.60
2023-06-30T16:45:35.109Z,5.00
2023-06-30T16:56:01.137Z,2.40
2023-06-30T17:06:26.294Z,3.20
2023-06-30T17:16:50.590Z,3.40
2023-06-30T17:27:14.803Z,2.40
2023-06-30T17:37:40.054Z,3.70
2023-06-30T17:48:04.281Z,3.60
2023-06-30T17:58:28.492Z,3.10
2023-06-30T18:08:52.620Z,2.90
2023-06-30T18:19:19.137Z,3.00
2023-06-30T18:29:42.468Z,3.30
2023-06-30T18:40:19.772Z,3.50
2023-06-30T18:50:44.068Z,3.40
2023-06-30T19:01:11.082Z,4.10
2023-06-30T19:11:34.949Z,4.30
2023-06-30T19:21:59.397Z,3.50
2023-06-30T19:32:23.586Z,4.00
2023-06-30T19:42:47.914Z,4.20
2023-06-30T19:53:13.022Z,3.40
2023-06-30T20:03:37.552Z,4.20
2023-06-30T20:14:01.784Z,4.60
2023-06-30T20:24:30.014Z,5.20
2023-06-30T20:34:54.273Z,5.10
2023-06-30T20:45:18.639Z,4.40
2023-06-30T20:55:43.006Z,4.70
2023-06-30T21:06:07.458Z,5.10
2023-06-30T21:16:31.910Z,5.80
2023-06-30T21:26:55.930Z,6.20
2023-06-30T21:37:19.974Z,5.60
2023-06-30T21:47:44.032Z,5.80
2023-06-30T21:58:22.717Z,6.10
2023-06-30T22:08:53.412Z,6.50
2023-06-30T22:19:19.078Z,7.20
2023-06-30T22:29:43.310Z,7.40
2023-06-30T22:40:09.792Z,7.10
2023-06-30T22:50:33.319Z,6.90
2023-06-30T23:00:57.343Z,7.40
2023-06-30T23:11:21.499Z,7.90
2023-06-30T23:21:45.803Z,7.20
2023-06-30T23:32:10.345Z,8.60
2023-06-30T23:42:33.888Z,7.40
2023-06-30T23:52:57.873Z,7.30
